Latest Coastal Weather Observations for Cape Leeuwin

IDW60701

Issued at 9:12 am WST Sunday 26 April 2015 (issued every 10 minutes, with the page automatically refreshed every 10 minutes)

About coastal observations | Map of coastal stations | Coastal observations for WA | Marine services | Other Formats
Station Details ID: 009518 Name: CAPE LEEUWIN Lat: -34.37 Lon: 115.14 Height: 13.0 m
Data from the previous 72 hours. | See also: Recent months at Cape Leeuwin
Date/Time
WST
Temp

°C
Wind Pressure Rain
since 9am
mm
Weather Cloud Vis
km
Sea
Height
m
Swell
Dir
 
Speed
knots
Gust
knots
hPa Trend Height
m
Period
s
Dir
26/09:00am 14.8 ENE 15 19 1028.0 - 0.0 - - - - - - -
26/08:30am 14.5 ENE 15 17 1027.9 - 0.0 - - - - - - -
26/08:00am 14.3 ENE 15 17 1027.7 - 0.0 - - - - - - -
26/07:30am 13.0 ENE 13 15 1027.5 - 0.0 - - - - - - -
26/07:00am 11.9 ENE 13 14 1027.4 - 0.0 - - - - - - -
26/06:30am 12.2 ENE 12 14 1027.4 - 0.0 - - - - - - -
26/06:00am 12.4 ENE 13 16 1027.3 - 0.0 - - - - - - -
26/05:30am 13.1 ENE 16 20 1027.3 - 0.0 - - - - - - -
26/05:00am 13.5 ENE 17 20 1027.2 - 0.0 - - - - - - -
26/04:30am 13.2 ENE 14 17 1027.2 - 0.0 - - - - - - -
26/04:00am 13.2 NE 12 15 1027.1 - 0.0 - - - - - - -
26/03:30am 13.9 NE 14 17 1027.2 - 0.0 - - - - - - -
26/03:00am 14.0 NE 15 21 1027.3 - 0.0 - - - - - - -
26/02:30am 14.1 NE 16 19 1027.4 - 0.0 - - - - - - -
26/02:00am 14.7 ENE 21 25 1027.2 - 0.0 - - - - - - -
26/01:30am 14.9 ENE 19 23 1027.2 - 0.0 - - - - - - -
26/01:00am 15.1 ENE 20 27 1027.0 - 0.0 - - - - - - -
26/12:30am 15.2 ENE 20 24 1027.1 - 0.0 - - - - - - -
26/12:00am 15.1 ENE 23 27 1027.0 - 0.0 - - - - - - -
 
Date/Time
WST
Temp

°C
Wind Pressure Rain
since 9am
mm
Weather Cloud Vis
km
Sea
Height
m
Swell
Dir
 
Speed
knots
Gust
knots
hPa Trend Height
m
Period
s
Dir
25/11:30pm 15.5 ENE 23 29 1027.0 - 0.0 - - - - - - -
25/11:00pm 15.7 E 25 28 1027.2 - 0.0 - - - - - - -
25/10:30pm 16.2 E 23 27 1027.4 - 0.0 - - - - - - -
25/10:00pm 16.6 E 22 25 1027.5 - 0.0 - - - - - - -
25/09:30pm 16.9 E 21 25 1027.5 - 0.0 - - - - - - -
25/09:00pm 17.0 ESE 18 22 1027.4 - 0.0 - - - - - - -
25/08:30pm 17.3 ESE 19 23 1027.3 - 0.0 - - - - - - -
25/08:00pm 17.4 E 19 21 1027.1 - 0.0 - - - - - - -
25/07:30pm 17.5 E 17 20 1027.0 - 0.0 - - - - - - -
25/07:00pm 17.6 E 16 20 1026.9 - 0.0 - - - - - - -
25/06:30pm 17.7 ESE 17 22 1026.7 - 0.0 - - - - - - -
25/06:00pm 17.7 ESE 17 22 1026.5 - 0.0 - - - - - - -
25/05:30pm 17.7 ESE 15 20 1026.3 - 0.0 - - - - - - -
25/05:00pm 17.7 SE 16 20 1026.2 - 0.0 - - - - - - -
25/04:30pm 18.3 ESE 15 18 1026.1 - 0.0 - - - - - - -
25/04:00pm 18.1 ESE 14 19 1026.2 - 0.0 - - - - - - -
25/03:30pm 18.1 ESE 14 17 1026.2 - 0.0 - - - - - - -
25/03:00pm 18.4 ESE 12 16 1026.1 - 0.0 - - - - - - -
25/02:30pm 18.8 ESE 11 14 1026.2 - 0.0 - - - - - - -
25/02:00pm 18.3 E 11 15 1026.3 - 0.0 - - - - - - -
25/01:30pm 18.0 E 11 14 1026.5 - 0.0 - - - - - - -
25/01:00pm 17.6 E 11 14 1026.8 - 0.0 - - - - - - -
25/12:30pm 17.5 E 11 15 1027.3 - 0.0 - - - - - - -
25/12:00pm 17.4 ENE 13 19 1027.9 - 0.0 - - - - - - -
25/11:30am 17.2 ENE 15 18 1028.4 - 0.0 - - - - - - -
25/11:00am 17.0 ENE 14 17 1028.8 - 0.0 - - - - - - -
25/10:30am 17.0 NE 17 21 1028.9 - 0.0 - - - - - - -
25/10:00am 16.7 NE 17 22 1029.2 - 0.0 - - - - - - -
25/09:30am 15.7 ENE 17 20 1029.5 - 0.0 - - - - - - -
25/09:00am 15.4 ENE 19 22 1029.7 - 0.0 - - - - - - -
25/08:30am 15.2 E 19 22 1029.6 - 0.0 - - - - - - -
25/08:00am 15.3 E 20 23 1029.1 - 0.0 - - - - - - -
25/07:30am 14.6 ENE 19 22 1028.7 - 0.0 - - - - - - -
25/07:00am 14.6 ENE 20 24 1028.4 - 0.0 - - - - - - -
25/06:30am 14.8 E 21 25 1028.2 - 0.0 - - - - - - -
25/06:00am 14.8 E 21 26 1028.1 - 0.0 - - - - - - -
25/05:30am 15.0 E 22 27 1028.0 - 0.0 - - - - - - -
25/05:00am 15.0 E 23 28 1027.9 - 0.0 - - - - - - -
25/04:30am 14.9 E 22 26 1028.0 - 0.0 - - - - - - -
25/04:00am 15.1 E 23 29 1028.1 - 0.0 - - - - - - -
25/03:30am 15.0 E 21 25 1028.2 - 0.0 - - - - - - -
25/03:00am 14.8 E 20 24 1028.2 - 0.0 - - - - - - -
25/02:30am 14.6 E 22 26 1028.3 - 0.0 - - - - - - -
25/02:00am 14.8 E 23 28 1028.4 - 0.0 - - - - - - -
25/01:30am 15.0 E 25 31 1028.1 - 0.0 - - - - - - -
25/01:00am 15.0 E 26 30 1028.2 - 0.0 - - - - - - -
25/12:30am 15.1 E 24 28 1028.4 - 0.0 - - - - - - -
25/12:00am 15.2 ENE 24 28 1028.6 - 0.0 - - - - - - -
 
Date/Time
WST
Temp

°C
Wind Pressure Rain
since 9am
mm
Weather Cloud Vis
km
Sea
Height
m
Swell
Dir
 
Speed
knots
Gust
knots
hPa Trend Height
m
Period
s
Dir
24/11:30pm 15.0 E 23 29 1028.7 - 0.0 - - - - - - -
24/11:00pm 15.2 E 24 30 1028.8 - 0.0 - - - - - - -
24/10:30pm 15.3 E 27 31 1028.7 - 0.0 - - - - - - -
24/10:00pm 15.6 E 25 34 1029.0 - 0.0 - - - - - - -
24/09:30pm 15.7 E 25 31 1029.1 - 0.0 - - - - - - -
24/09:00pm 15.8 E 27 31 1028.9 - 0.0 - - - - - - -
24/08:30pm 15.9 E 25 30 1028.9 - 0.0 - - - - - - -
24/08:00pm 16.1 E 24 29 1028.7 - 0.0 - - - - - - -
24/07:30pm 16.2 E 23 27 1028.6 - 0.0 - - - - - - -
24/07:00pm 16.3 E 22 27 1028.7 - 0.0 - - - - - - -
24/06:30pm 16.3 E 24 27 1028.5 - 0.0 - - - - - - -
24/06:00pm 16.5 E 24 31 1028.2 - 0.0 - - - - - - -
24/05:30pm 16.6 ESE 24 28 1028.0 - 0.0 - - - - - - -
24/05:00pm 16.6 ESE 24 28 1027.9 - 0.0 - - - - - - -
24/04:30pm 16.7 ESE 23 27 1028.2 - 0.0 - - - - - - -
24/04:00pm 16.9 ESE 21 26 1028.4 - 0.0 - - - - - - -
24/03:30pm 16.9 ESE 20 25 1028.4 - 0.0 - - - - - - -
24/03:00pm 16.9 ESE 23 28 1028.2 - 0.0 - - - - - - -
24/02:30pm 17.1 ESE 21 28 1028.3 - 0.0 - - - - - - -
24/02:00pm 16.7 ESE 20 24 1028.5 - 0.0 - - - - - - -
24/01:30pm 17.2 E 22 27 1029.1 - 0.0 - - - - - - -
24/01:00pm 17.5 E 21 26 1029.4 - 0.0 - - - - - - -
24/12:30pm 17.0 E 23 29 1029.8 - 0.0 - - - - - - -
24/12:00pm 16.6 E 21 25 1030.3 - 0.0 - - - - - - -
24/11:30am 16.9 E 23 29 1030.5 - 0.0 - - - - - - -
24/11:00am 16.0 E 25 30 1030.8 - 0.0 - - - - - - -
24/10:30am 15.8 E 25 31 1030.8 - 0.0 - - - - - - -
24/10:00am 15.6 E 23 29 1031.0 - 0.0 - - - - - - -
24/09:30am 15.7 E 25 33 1031.0 - 0.0 - - - - - - -
24/09:00am 15.1 E 24 29 1030.8 - 0.0 - - - - - - -
24/08:30am 14.8 E 25 31 1030.8 - 0.0 - - - - - - -
24/08:00am 14.8 E 26 31 1030.9 - 0.0 - - - - - - -
24/07:30am 14.6 E 25 30 1030.5 - 0.0 - - - - - - -
24/07:00am 14.6 E 27 33 1029.9 - 0.0 - - - - - - -
24/06:30am 14.5 E 25 31 1029.6 - 0.0 - - - - - - -
24/06:00am 14.5 E 25 32 1029.6 - 0.0 - - - - - - -
24/05:30am 14.5 E 27 33 1029.3 - 0.0 - - - - - - -
24/05:00am 14.6 E 26 33 1029.2 - 0.0 - - - - - - -
24/04:30am 14.4 E 25 31 1029.3 - 0.0 - - - - - - -
24/04:00am 14.7 E 27 32 1029.1 - 0.0 - - - - - - -
24/03:30am 14.6 E 25 33 1029.3 - 0.0 - - - - - - -
24/03:00am 14.4 E 23 29 1029.5 - 0.0 - - - - - - -
24/02:30am 14.3 E 24 29 1029.7 - 0.0 - - - - - - -
24/02:00am 14.8 E 27 34 1029.5 - 0.0 - - - - - - -
24/01:30am 14.8 E 27 34 1029.6 - 0.0 - - - - - - -
24/01:00am 14.8 E 29 34 1029.5 - 0.0 - - - - - - -
24/12:30am 15.0 E 27 33 1029.6 - 0.0 - - - - - - -
24/12:00am 15.3 ESE 28 36 1029.3 - 0.0 - - - - - - -
 
Date/Time
WST
Temp

°C
Wind Pressure Rain
since 9am
mm
Weather Cloud Vis
km
Sea
Height
m
Swell
Dir
 
Speed
knots
Gust
knots
hPa Trend Height
m
Period
s
Dir
23/11:30pm 15.1 ESE 28 33 1029.5 - 0.0 - - - - - - -
23/11:13pm 15.2 ESE 26 36 1029.6 - 0.0 - - - - - - -
23/11:00pm 15.3 E 31 36 1029.4 - 0.0 - - - - - - -
23/10:30pm 15.6 ESE 26 32 1029.6 - 0.0 - - - - - - -
23/10:00pm 15.8 ESE 25 32 1029.5 - 0.0 - - - - - - -
23/09:30pm 16.1 SE 24 32 1029.5 - 0.0 - - - - - - -
23/09:00pm 16.2 ESE 26 32 1029.3 - 0.0 - - - - - - -
23/08:30pm 16.5 SE 25 31 1029.1 - 0.0 - - - - - - -
23/08:00pm 16.4 SE 25 31 1029.0 - 0.0 - - - - - - -
23/07:30pm 16.4 SE 22 32 1028.9 - 0.0 - - - - - - -
23/07:00pm 16.4 SE 25 31 1028.7 - 0.0 - - - - - - -
23/06:30pm 16.4 SE 24 31 1028.3 - 0.0 - - - - - - -
23/06:00pm 16.6 SE 23 32 1028.0 - 0.0 - - - - - - -
23/05:30pm 16.9 SE 22 29 1027.7 - 0.0 - - - - - - -
23/05:00pm 17.1 SE 22 27 1027.6 - 0.0 - - - - - - -
23/04:30pm 17.5 SE 23 29 1027.4 - 0.0 - - - - - - -
23/04:00pm 17.3 SE 23 31 1027.4 - 0.0 - - - - - - -
23/03:30pm 17.8 SE 23 30 1027.3 - 0.0 - - - - - - -
23/03:00pm 17.9 SE 23 30 1026.9 - 0.0 - - - - - - -
23/02:30pm 18.2 SE 24 29 1026.9 - 0.0 - - - - - - -
23/02:00pm 18.3 SE 22 28 1026.6 - 0.0 - - - - - - -
23/01:30pm 18.0 SE 22 30 1026.6 - 0.0 - - - - - - -
23/01:00pm 18.2 SE 21 27 1026.7 - 0.0 - - - - - - -
23/12:37pm 17.5 SE 20 30 1027.1 - 0.0 - - - - - - -
23/12:30pm 18.1 SE 21 30 1027.2 - 0.0 - - - - - - -
23/12:00pm 18.1 SE 22 26 1027.3 - 0.0 - - - - - - -
23/11:30am 18.5 SE 22 29 1027.5 - 0.0 - - - - - - -
23/11:00am 18.4 SE 19 25 1027.4 - 0.0 - - - - - - -
23/10:30am 18.4 SE 20 25 1027.3 - 0.0 - - - - - - -
23/10:00am 17.9 SSE 19 24 1027.2 - 0.0 - - - - - - -
23/09:30am 18.0 SE 20 24 1027.1 - 0.0 - - - - - - -

Other Formats:

Comma delimited format used in spreadsheet applications
http://www.bom.gov.au/fwo/IDW60701/IDW60701.94601.axf

JavaScript Object Notation format (JSON) in row-major order
http://www.bom.gov.au/fwo/IDW60701/IDW60701.94601.json